createdAt,value
2023-02-01T00:00:32.229Z,0.00
2023-02-01T00:01:32.231Z,0.00
2023-02-01T00:02:32.240Z,0.00
2023-02-01T00:03:32.240Z,0.00
2023-02-01T00:04:32.185Z,0.00
2023-02-01T00:05:32.155Z,0.00
2023-02-01T00:06:32.158Z,0.00
2023-02-01T00:07:32.544Z,0.00
2023-02-01T00:08:32.292Z,0.00
2023-02-01T00:09:32.135Z,0.00
2023-02-01T00:10:32.109Z,0.00
2023-02-01T00:11:32.080Z,0.00
2023-02-01T00:12:32.077Z,0.00
2023-02-01T00:13:32.090Z,0.00
2023-02-01T00:14:32.077Z,0.00
2023-02-01T00:15:32.100Z,0.00
2023-02-01T00:16:32.069Z,0.00
2023-02-01T00:17:32.030Z,0.00
2023-02-01T00:18:32.036Z,0.00
2023-02-01T00:19:32.006Z,0.00
2023-02-01T00:20:32.140Z,0.00
2023-02-01T00:21:31.996Z,0.00
2023-02-01T00:22:31.973Z,0.00
2023-02-01T00:23:31.964Z,0.00
2023-02-01T00:24:31.957Z,0.00
2023-02-01T00:25:31.942Z,0.00
2023-02-01T00:26:31.976Z,0.00
2023-02-01T00:27:31.899Z,0.00
2023-02-01T00:28:31.914Z,0.00
2023-02-01T00:29:31.875Z,0.00
2023-02-01T00:30:31.905Z,0.00
2023-02-01T00:31:32.021Z,0.00
2023-02-01T00:32:31.866Z,0.00
2023-02-01T00:33:31.837Z,0.00
2023-02-01T00:34:31.828Z,0.00
2023-02-01T00:35:31.826Z,0.00
2023-02-01T00:36:31.814Z,0.00
2023-02-01T00:37:31.778Z,0.00
2023-02-01T00:38:31.795Z,0.00
2023-02-01T00:39:31.758Z,0.00
2023-02-01T00:40:31.745Z,0.00
2023-02-01T00:41:31.754Z,0.00
2023-02-01T00:42:31.753Z,0.00
2023-02-01T00:43:31.710Z,0.00
2023-02-01T00:44:31.714Z,0.00
2023-02-01T00:45:31.697Z,0.00
2023-02-01T00:46:31.775Z,0.00
2023-02-01T00:47:31.708Z,0.00
2023-02-01T00:48:31.670Z,0.00
2023-02-01T00:49:31.669Z,0.00
2023-02-01T00:50:31.694Z,0.00
2023-02-01T00:51:31.664Z,0.00
2023-02-01T00:52:31.624Z,0.00
2023-02-01T00:53:31.600Z,0.00
2023-02-01T00:54:31.607Z,0.00
2023-02-01T00:55:31.621Z,0.00
2023-02-01T00:56:31.979Z,0.00
2023-02-01T00:57:32.283Z,0.00
2023-02-01T00:58:32.286Z,0.00
2023-02-01T00:59:31.529Z,0.00
2023-02-01T01:00:31.552Z,0.00
2023-02-01T01:01:31.531Z,0.00
2023-02-01T01:02:31.610Z,0.00
2023-02-01T01:03:31.496Z,0.00
2023-02-01T01:04:31.475Z,0.00
2023-02-01T01:05:31.477Z,0.00
2023-02-01T01:06:31.472Z,0.00
2023-02-01T01:07:31.466Z,0.00
2023-02-01T01:08:31.574Z,0.00
2023-02-01T01:09:31.427Z,0.00
2023-02-01T01:10:31.414Z,0.00
2023-02-01T01:11:31.407Z,0.00
2023-02-01T01:12:31.399Z,0.00
2023-02-01T01:13:31.389Z,0.00
2023-02-01T01:14:31.387Z,0.00
2023-02-01T01:15:31.358Z,0.00
2023-02-01T01:16:31.632Z,0.00
2023-02-01T01:17:31.322Z,0.00
2023-02-01T01:18:31.366Z,0.00
2023-02-01T01:19:31.312Z,0.00
2023-02-01T01:20:31.311Z,0.00
2023-02-01T01:21:31.283Z,0.00
2023-02-01T01:22:31.323Z,0.00
2023-02-01T01:23:31.297Z,0.00
2023-02-01T01:24:31.266Z,0.00
2023-02-01T01:25:31.236Z,0.00
2023-02-01T01:26:31.343Z,0.00
2023-02-01T01:27:31.216Z,0.00
2023-02-01T01:28:31.248Z,0.00
2023-02-01T01:29:31.201Z,0.00
2023-02-01T01:30:31.228Z,0.00
2023-02-01T01:31:31.230Z,0.00
2023-02-01T01:32:31.192Z,0.00
2023-02-01T01:33:31.177Z,0.00
2023-02-01T01:34:31.203Z,0.00
2023-02-01T01:35:31.133Z,0.00
2023-02-01T01:36:31.408Z,0.00
2023-02-01T01:37:31.111Z,0.00
2023-02-01T01:38:31.103Z,0.00
2023-02-01T01:39:31.096Z,0.00
2023-02-01T01:40:31.088Z,0.00
2023-02-01T01:41:31.095Z,0.00
2023-02-01T01:42:31.074Z,0.00
2023-02-01T01:43:31.032Z,0.00
2023-02-01T01:44:31.056Z,0.00
2023-02-01T01:45:31.063Z,0.00
2023-02-01T01:46:31.080Z,0.00
2023-02-01T01:47:31.010Z,0.00
2023-02-01T01:48:30.983Z,0.00
2023-02-01T01:49:31.023Z,0.00
2023-02-01T01:50:30.975Z,0.00
2023-02-01T01:51:30.960Z,0.00
2023-02-01T01:52:31.077Z,0.00
2023-02-01T01:53:30.923Z,0.00
2023-02-01T01:54:30.920Z,0.00
2023-02-01T01:55:30.934Z,0.00
2023-02-01T01:56:30.926Z,0.00
2023-02-01T01:57:30.872Z,0.00
2023-02-01T01:58:30.904Z,0.00
2023-02-01T01:59:30.873Z,0.00
2023-02-01T02:00:30.884Z,0.00
2023-02-01T02:01:30.830Z,0.00
2023-02-01T02:02:30.811Z,0.00
2023-02-01T02:03:30.804Z,0.00
2023-02-01T02:04:30.798Z,0.00
2023-02-01T02:05:30.791Z,0.00
2023-02-01T02:06:30.763Z,0.00
2023-02-01T02:07:30.763Z,0.00
2023-02-01T02:08:30.757Z,0.00
2023-02-01T02:09:30.749Z,0.00
2023-02-01T02:10:30.744Z,0.00
2023-02-01T02:11:30.703Z,0.00
2023-02-01T02:12:30.716Z,0.00
2023-02-01T02:13:30.703Z,0.00
2023-02-01T02:14:30.752Z,0.00
2023-02-01T02:15:30.663Z,0.00
2023-02-01T02:16:30.706Z,0.00
2023-02-01T02:17:30.655Z,0.00
2023-02-01T02:18:30.643Z,0.00
2023-02-01T02:19:30.632Z,0.00
2023-02-01T02:20:30.643Z,0.00
2023-02-01T02:21:30.604Z,0.00
2023-02-01T02:22:30.620Z,0.00
2023-02-01T02:23:30.606Z,0.00
2023-02-01T02:24:30.583Z,0.00
2023-02-01T02:25:30.591Z,0.00
2023-02-01T02:26:30.655Z,0.00
2023-02-01T02:27:30.553Z,0.00
2023-02-01T02:28:30.532Z,0.00
2023-02-01T02:29:30.512Z,0.00
2023-02-01T02:30:31.292Z,0.00
2023-02-01T02:31:30.603Z,0.00
2023-02-01T02:32:30.498Z,0.00
2023-02-01T02:33:30.471Z,0.00
2023-02-01T02:34:30.474Z,0.00
2023-02-01T02:35:30.447Z,0.00
2023-02-01T02:36:30.442Z,0.00
2023-02-01T02:37:30.431Z,0.00
2023-02-01T02:38:30.424Z,0.00
2023-02-01T02:39:30.403Z,0.00
2023-02-01T02:40:30.398Z,0.00
2023-02-01T02:41:30.383Z,0.00
2023-02-01T02:42:30.396Z,0.00
2023-02-01T02:43:30.392Z,0.00
2023-02-01T02:44:30.340Z,0.00
2023-02-01T02:45:30.380Z,0.00
2023-02-01T02:46:30.351Z,0.00
2023-02-01T02:47:30.327Z,0.00
2023-02-01T02:48:30.319Z,0.00
2023-02-01T02:49:30.306Z,0.00
2023-02-01T02:50:30.286Z,0.00
2023-02-01T02:51:30.302Z,0.00
2023-02-01T02:52:30.272Z,0.00
2023-02-01T02:53:30.244Z,0.00
2023-02-01T02:54:30.264Z,0.00
2023-02-01T02:55:30.220Z,0.00
2023-02-01T02:56:30.231Z,0.00
2023-02-01T02:57:30.232Z,0.00
2023-02-01T02:58:30.234Z,0.00
2023-02-01T02:59:30.179Z,0.00
2023-02-01T03:00:30.200Z,0.00
2023-02-01T03:01:30.142Z,0.00
2023-02-01T03:02:30.177Z,0.00
2023-02-01T03:03:30.133Z,0.00
2023-02-01T03:04:30.158Z,0.00
2023-02-01T03:05:30.241Z,0.00
2023-02-01T03:06:30.100Z,0.00
2023-02-01T03:07:30.085Z,0.00
2023-02-01T03:08:30.082Z,0.00
2023-02-01T03:09:30.080Z,0.00
2023-02-01T03:10:30.092Z,0.00
2023-02-01T03:11:30.038Z,0.00
2023-02-01T03:12:30.052Z,0.00
2023-02-01T03:13:30.028Z,0.00
2023-02-01T03:14:30.035Z,0.00
2023-02-01T03:15:29.995Z,0.00
2023-02-01T03:16:30.095Z,0.00
2023-02-01T03:17:29.973Z,0.00
2023-02-01T03:18:29.989Z,0.00
2023-02-01T03:19:30.137Z,0.00
2023-02-01T03:20:29.957Z,0.00
2023-02-01T03:21:29.934Z,0.00
2023-02-01T03:22:29.943Z,0.00
2023-02-01T03:23:29.911Z,0.00
2023-02-01T03:24:29.920Z,0.00
2023-02-01T03:25:30.186Z,0.00
2023-02-01T03:26:29.977Z,0.00
2023-02-01T03:27:29.868Z,0.00
2023-02-01T03:28:29.883Z,0.00
2023-02-01T03:29:29.853Z,0.00
2023-02-01T03:30:29.849Z,0.00
2023-02-01T03:31:29.930Z,0.00
2023-02-01T03:32:29.828Z,0.00
2023-02-01T03:33:29.793Z,0.00
2023-02-01T03:34:29.809Z,0.00
2023-02-01T03:35:29.773Z,0.00
2023-02-01T03:36:29.787Z,0.00
2023-02-01T03:37:29.777Z,0.00
2023-02-01T03:38:29.752Z,0.00
2023-02-01T03:39:29.735Z,0.00
2023-02-01T03:40:29.758Z,0.00
2023-02-01T03:41:29.711Z,0.00
2023-02-01T03:42:29.711Z,0.00
2023-02-01T03:43:29.694Z,0.00
2023-02-01T03:44:29.686Z,0.00
2023-02-01T03:45:30.127Z,0.00
2023-02-01T03:46:29.690Z,0.00
2023-02-01T03:47:29.641Z,0.00
2023-02-01T03:48:29.649Z,0.00
2023-02-01T03:49:29.619Z,0.00
2023-02-01T03:50:29.633Z,0.00
2023-02-01T03:51:29.594Z,0.00
2023-02-01T03:52:29.602Z,0.00
2023-02-01T03:53:29.573Z,0.00
2023-02-01T03:54:29.854Z,0.00
2023-02-01T03:55:29.571Z,0.00
2023-02-01T03:56:29.553Z,0.00
2023-02-01T03:57:29.523Z,0.00
2023-02-01T03:58:29.533Z,0.00
2023-02-01T03:59:29.521Z,0.00
2023-02-01T04:00:29.507Z,0.00
2023-02-01T04:01:29.549Z,0.00
2023-02-01T04:02:29.520Z,0.00
2023-02-01T04:03:29.459Z,0.00
2023-02-01T04:04:29.465Z,0.00
2023-02-01T04:05:29.523Z,0.00
2023-02-01T04:06:29.426Z,0.00
2023-02-01T04:07:29.434Z,0.00
2023-02-01T04:08:29.405Z,0.00
2023-02-01T04:09:29.441Z,0.00
2023-02-01T04:10:29.394Z,0.00
2023-02-01T04:11:29.373Z,0.00
2023-02-01T04:12:29.357Z,0.00
2023-02-01T04:13:29.370Z,0.00
2023-02-01T04:14:29.330Z,0.00
2023-02-01T04:15:29.342Z,0.00
2023-02-01T04:16:29.322Z,0.00
2023-02-01T04:17:29.296Z,0.00
2023-02-01T04:18:29.295Z,0.00
2023-02-01T04:19:29.295Z,0.00
2023-02-01T04:20:29.314Z,0.00
2023-02-01T04:21:29.251Z,0.00
2023-02-01T04:22:29.252Z,0.00
2023-02-01T04:23:29.235Z,0.00
2023-02-01T04:24:29.246Z,0.00
2023-02-01T04:25:29.338Z,0.00
2023-02-01T04:26:29.220Z,0.00
2023-02-01T04:27:30.226Z,0.00
2023-02-01T04:28:29.185Z,0.00
2023-02-01T04:29:29.172Z,0.00
2023-02-01T04:30:29.208Z,0.00
2023-02-01T04:31:29.209Z,0.00
2023-02-01T04:32:29.149Z,0.00
2023-02-01T04:33:29.128Z,0.00
2023-02-01T04:34:29.104Z,0.00
2023-02-01T04:35:29.125Z,0.00
2023-02-01T04:36:29.182Z,0.00
2023-02-01T04:37:29.111Z,0.00
2023-02-01T04:38:29.081Z,0.00
2023-02-01T04:39:29.050Z,0.00
2023-02-01T04:40:29.054Z,0.00
2023-02-01T04:41:29.040Z,0.00
2023-02-01T04:42:29.023Z,0.00
2023-02-01T04:43:29.002Z,0.00
2023-02-01T04:44:29.017Z,0.00
2023-02-01T04:45:29.383Z,0.00
2023-02-01T04:46:29.028Z,0.00
2023-02-01T04:47:28.973Z,0.00
2023-02-01T04:48:28.971Z,0.00
2023-02-01T04:49:28.935Z,0.00
2023-02-01T04:50:28.978Z,0.00
2023-02-01T04:51:28.904Z,0.00
2023-02-01T04:52:28.932Z,0.00
2023-02-01T04:53:28.894Z,0.00
2023-02-01T04:54:28.905Z,0.00
2023-02-01T04:55:28.865Z,0.00
2023-02-01T04:56:28.874Z,0.00
2023-02-01T04:57:28.859Z,0.00
2023-02-01T04:58:28.856Z,0.00
2023-02-01T04:59:29.688Z,0.00
2023-02-01T05:00:28.812Z,0.00
2023-02-01T05:01:28.832Z,0.00
2023-02-01T05:02:28.821Z,0.00
2023-02-01T05:03:28.786Z,0.00
2023-02-01T05:04:28.798Z,0.00
2023-02-01T05:05:28.754Z,0.00
2023-02-01T05:06:28.761Z,0.00
2023-02-01T05:07:28.745Z,0.00
2023-02-01T05:08:28.764Z,0.00
2023-02-01T05:09:28.721Z,0.00
2023-02-01T05:10:28.718Z,0.00
2023-02-01T05:11:28.754Z,0.00
2023-02-01T05:12:28.688Z,0.00
2023-02-01T05:13:28.673Z,0.00
2023-02-01T05:14:28.667Z,0.00
2023-02-01T05:15:28.694Z,0.00
2023-02-01T05:16:28.646Z,0.00
2023-02-01T05:17:28.646Z,0.00
2023-02-01T05:18:28.658Z,0.00
2023-02-01T05:19:28.614Z,0.00
2023-02-01T05:20:28.608Z,0.00
2023-02-01T05:21:28.616Z,0.00
2023-02-01T05:22:28.603Z,0.00
2023-02-01T05:23:28.636Z,0.00
2023-02-01T05:24:28.568Z,0.00
2023-02-01T05:25:28.584Z,0.00
2023-02-01T05:26:28.598Z,0.00
2023-02-01T05:27:28.514Z,0.00
2023-02-01T05:28:28.536Z,0.00
2023-02-01T05:29:28.544Z,0.00
2023-02-01T05:30:28.486Z,0.00
2023-02-01T05:31:28.651Z,0.00
2023-02-01T05:32:28.511Z,0.00
2023-02-01T05:33:28.442Z,0.00
2023-02-01T05:34:28.875Z,0.00
2023-02-01T05:35:28.433Z,0.00
2023-02-01T05:36:28.431Z,0.00
2023-02-01T05:37:28.405Z,0.00
2023-02-01T05:38:28.422Z,0.00
2023-02-01T05:39:28.371Z,0.00
2023-02-01T05:40:28.370Z,0.00
2023-02-01T05:41:28.364Z,0.00
2023-02-01T05:42:28.353Z,0.00
2023-02-01T05:43:28.330Z,0.00
2023-02-01T05:44:28.347Z,0.00
2023-02-01T05:45:28.332Z,0.00
2023-02-01T05:46:28.373Z,0.00
2023-02-01T05:47:28.297Z,0.00
2023-02-01T05:48:28.285Z,0.00
2023-02-01T05:49:28.263Z,0.00
2023-02-01T05:50:28.263Z,0.00
2023-02-01T05:51:28.243Z,0.00
2023-02-01T05:52:28.243Z,0.00
2023-02-01T05:53:28.220Z,0.00
2023-02-01T05:54:28.533Z,0.00
2023-02-01T05:55:28.193Z,0.00
2023-02-01T05:56:28.201Z,0.00
2023-02-01T05:57:28.182Z,0.00
2023-02-01T05:58:34.397Z,0.00
2023-02-01T05:59:28.195Z,0.00
2023-02-01T06:00:28.365Z,0.00
2023-02-01T06:01:28.135Z,0.00
2023-02-01T06:02:28.155Z,0.00
2023-02-01T06:03:28.174Z,0.00
2023-02-01T06:04:28.095Z,0.00
2023-02-01T06:05:28.111Z,0.00
2023-02-01T06:06:28.069Z,0.00
2023-02-01T06:07:29.629Z,0.00
2023-02-01T06:08:28.052Z,0.00
2023-02-01T06:09:28.053Z,0.00
2023-02-01T06:10:28.044Z,0.00
2023-02-01T06:11:32.628Z,0.00
2023-02-01T06:12:29.003Z,0.00
2023-02-01T06:13:28.005Z,0.00
2023-02-01T06:14:28.121Z,0.00
2023-02-01T06:15:28.001Z,0.00
2023-02-01T06:16:28.016Z,0.00
2023-02-01T06:17:27.952Z,0.00
2023-02-01T06:18:27.944Z,0.00
2023-02-01T06:19:27.935Z,0.00
2023-02-01T06:20:27.904Z,0.00
2023-02-01T06:21:27.932Z,0.00
2023-02-01T06:22:27.893Z,0.00
2023-02-01T06:23:27.893Z,0.00
2023-02-01T06:24:27.880Z,0.00
2023-02-01T06:25:27.863Z,0.00
2023-02-01T06:26:27.882Z,0.00
2023-02-01T06:27:27.835Z,0.00
2023-02-01T06:28:27.821Z,0.00
2023-02-01T06:29:27.813Z,0.00
2023-02-01T06:30:27.812Z,0.00
2023-02-01T06:31:27.919Z,0.00
2023-02-01T06:32:27.793Z,0.00
2023-02-01T06:33:27.777Z,0.00
2023-02-01T06:34:27.844Z,0.00
2023-02-01T06:35:27.767Z,0.00
2023-02-01T06:36:27.749Z,0.00
2023-02-01T06:37:27.754Z,0.00
2023-02-01T06:38:27.729Z,0.00
2023-02-01T06:39:27.702Z,0.00
2023-02-01T06:40:27.713Z,0.00
2023-02-01T06:41:29.461Z,0.00
2023-02-01T06:42:27.672Z,0.00
2023-02-01T06:43:27.664Z,0.00
2023-02-01T06:44:27.643Z,4.00
2023-02-01T06:45:27.663Z,4.00
2023-02-01T06:46:27.636Z,0.00
2023-02-01T06:47:27.627Z,0.00
2023-02-01T06:48:27.612Z,4.00
2023-02-01T06:49:27.592Z,4.00
2023-02-01T06:50:27.598Z,4.00
2023-02-01T06:51:27.576Z,4.00
2023-02-01T06:52:27.549Z,0.00
2023-02-01T06:53:27.861Z,4.00
2023-02-01T06:54:27.867Z,4.00
2023-02-01T06:55:27.542Z,4.00
2023-02-01T06:56:27.515Z,4.00
2023-02-01T06:57:27.510Z,4.00
2023-02-01T06:58:27.491Z,4.00
2023-02-01T06:59:27.482Z,4.00
2023-02-01T07:00:27.532Z,4.00
2023-02-01T07:01:27.461Z,8.00
2023-02-01T07:02:27.448Z,8.00
2023-02-01T07:03:27.435Z,8.00
2023-02-01T07:04:27.422Z,12.00
2023-02-01T07:05:27.425Z,12.00
2023-02-01T07:06:27.410Z,12.00
2023-02-01T07:07:27.383Z,12.00
2023-02-01T07:08:27.370Z,12.00
2023-02-01T07:09:27.383Z,12.00
2023-02-01T07:10:27.362Z,16.00
2023-02-01T07:11:27.357Z,16.00
2023-02-01T07:12:27.325Z,16.00
2023-02-01T07:13:27.321Z,16.00
2023-02-01T07:14:27.380Z,16.00
2023-02-01T07:15:27.306Z,16.00
2023-02-01T07:16:27.385Z,16.00
2023-02-01T07:17:27.321Z,24.00
2023-02-01T07:18:27.261Z,32.00
2023-02-01T07:19:27.272Z,32.00
2023-02-01T07:20:27.234Z,32.00
2023-02-01T07:21:27.243Z,32.00
2023-02-01T07:22:27.232Z,28.00
2023-02-01T07:23:27.242Z,28.00
2023-02-01T07:24:27.190Z,32.00
2023-02-01T07:25:27.193Z,32.00
2023-02-01T07:26:27.264Z,36.00
2023-02-01T07:27:27.170Z,32.00
2023-02-01T07:28:27.169Z,40.00
2023-02-01T07:29:27.159Z,44.00
2023-02-01T07:30:27.138Z,44.00
2023-02-01T07:31:27.122Z,52.00
2023-02-01T07:32:27.115Z,56.00
2023-02-01T07:33:28.153Z,64.00
2023-02-01T07:34:27.098Z,68.00
2023-02-01T07:35:27.070Z,64.00
2023-02-01T07:36:27.083Z,64.00
2023-02-01T07:37:27.060Z,68.00
2023-02-01T07:38:27.043Z,68.00
2023-02-01T07:39:27.055Z,64.00
2023-02-01T07:40:27.022Z,64.00
2023-02-01T07:41:27.010Z,72.00
2023-02-01T07:42:27.002Z,68.00
2023-02-01T07:43:26.984Z,68.00
2023-02-01T07:44:26.982Z,76.00
2023-02-01T07:45:27.066Z,84.00
2023-02-01T07:46:26.950Z,88.00
2023-02-01T07:47:26.951Z,84.00
2023-02-01T07:48:26.916Z,88.00
2023-02-01T07:49:26.942Z,92.00
2023-02-01T07:50:26.914Z,100.00
2023-02-01T07:51:26.900Z,92.00
2023-02-01T07:52:26.871Z,88.00
2023-02-01T07:53:26.871Z,92.00
2023-02-01T07:54:27.010Z,96.00
2023-02-01T07:55:26.840Z,104.00
2023-02-01T07:56:26.839Z,116.00
2023-02-01T07:57:26.831Z,124.00
2023-02-01T07:58:26.821Z,140.00
2023-02-01T07:59:26.815Z,164.00
2023-02-01T08:00:26.814Z,180.00
2023-02-01T08:01:26.873Z,192.00
2023-02-01T08:02:26.790Z,204.00
2023-02-01T08:03:27.112Z,220.00
2023-02-01T08:04:26.738Z,228.00
2023-02-01T08:05:26.752Z,244.00
2023-02-01T08:06:26.717Z,268.00
2023-02-01T08:07:26.755Z,308.00
2023-02-01T08:08:26.712Z,340.00
2023-02-01T08:09:26.700Z,348.00
2023-02-01T08:10:26.805Z,324.00
2023-02-01T08:11:26.677Z,328.00
2023-02-01T08:12:26.647Z,360.00
2023-02-01T08:13:26.660Z,380.00
2023-02-01T08:14:26.631Z,392.00
2023-02-01T08:15:26.620Z,400.00
2023-02-01T08:16:26.653Z,420.00
2023-02-01T08:17:26.600Z,408.00
2023-02-01T08:18:26.591Z,376.00
2023-02-01T08:19:26.560Z,380.00
2023-02-01T08:20:26.666Z,380.00
2023-02-01T08:21:26.553Z,332.00
2023-02-01T08:22:26.562Z,316.00
2023-02-01T08:23:26.716Z,332.00
2023-02-01T08:24:26.525Z,344.00
2023-02-01T08:25:26.498Z,368.00
2023-02-01T08:26:26.544Z,404.00
2023-02-01T08:27:26.493Z,428.00
2023-02-01T08:28:26.483Z,472.00
2023-02-01T08:29:26.471Z,480.00
2023-02-01T08:30:26.494Z,436.00
2023-02-01T08:31:26.475Z,440.00
2023-02-01T08:32:26.981Z,448.00
2023-02-01T08:33:26.411Z,440.00
2023-02-01T08:34:26.417Z,400.00
2023-02-01T08:35:41.442Z,384.00
2023-02-01T08:36:27.380Z,340.00
2023-02-01T08:37:26.380Z,336.00
2023-02-01T08:38:26.365Z,344.00
2023-02-01T08:39:26.357Z,332.00
2023-02-01T08:40:26.401Z,344.00
2023-02-01T08:41:26.321Z,368.00
2023-02-01T08:42:26.324Z,376.00
2023-02-01T08:43:26.745Z,368.00
2023-02-01T08:44:26.303Z,368.00
2023-02-01T08:45:26.285Z,368.00
2023-02-01T08:46:26.381Z,392.00
2023-02-01T08:47:26.283Z,372.00
2023-02-01T08:48:26.259Z,364.00
2023-02-01T08:49:26.440Z,372.00
2023-02-01T08:50:26.694Z,396.00
2023-02-01T08:51:26.220Z,388.00
2023-02-01T08:52:26.220Z,364.00
2023-02-01T08:53:26.190Z,328.00
2023-02-01T08:54:26.201Z,332.00
2023-02-01T08:55:26.173Z,348.00
2023-02-01T08:56:26.230Z,300.00
2023-02-01T08:57:26.140Z,268.00
2023-02-01T08:58:26.132Z,292.00
2023-02-01T08:59:27.827Z,284.00
2023-02-01T09:00:26.391Z,280.00
2023-02-01T09:01:26.178Z,292.00
2023-02-01T09:02:26.113Z,320.00
2023-02-01T09:03:27.003Z,320.00
2023-02-01T09:04:26.072Z,312.00
2023-02-01T09:05:26.073Z,276.00
2023-02-01T09:06:26.059Z,276.00
2023-02-01T09:07:26.043Z,296.00
2023-02-01T09:08:26.072Z,348.00
2023-02-01T09:09:26.008Z,368.00
2023-02-01T09:10:34.713Z,356.00
2023-02-01T09:11:26.993Z,344.00
2023-02-01T09:12:26.010Z,304.00
2023-02-01T09:13:25.970Z,292.00
2023-02-01T09:14:25.973Z,312.00
2023-02-01T09:15:26.032Z,344.00
2023-02-01T09:16:25.951Z,404.00
2023-02-01T09:17:25.929Z,432.00
2023-02-01T09:18:26.360Z,420.00
2023-02-01T09:19:27.202Z,384.00
2023-02-01T09:20:26.296Z,348.00
2023-02-01T09:21:25.877Z,412.00
2023-02-01T09:22:25.884Z,440.00
2023-02-01T09:23:27.321Z,472.00
2023-02-01T09:24:25.845Z,524.00
2023-02-01T09:25:25.871Z,464.00
2023-02-01T09:26:31.571Z,452.00
2023-02-01T09:27:26.797Z,388.00
2023-02-01T09:28:25.809Z,340.00
2023-02-01T09:29:25.823Z,244.00
2023-02-01T09:30:26.117Z,272.00
2023-02-01T09:31:25.834Z,308.00
2023-02-01T09:32:25.849Z,304.00
2023-02-01T09:33:25.762Z,260.00
2023-02-01T09:34:25.728Z,252.00
2023-02-01T09:35:25.723Z,296.00
2023-02-01T09:36:25.699Z,300.00
2023-02-01T09:37:25.684Z,308.00
2023-02-01T09:38:25.701Z,336.00
2023-02-01T09:39:25.669Z,316.00
2023-02-01T09:40:26.247Z,292.00
2023-02-01T09:41:32.878Z,328.00
2023-02-01T09:42:26.006Z,352.00
2023-02-01T09:43:25.924Z,396.00
2023-02-01T09:44:30.015Z,368.00
2023-02-01T09:45:26.647Z,344.00
2023-02-01T09:46:25.874Z,388.00
2023-02-01T09:47:25.894Z,388.00
2023-02-01T09:48:25.955Z,448.00
2023-02-01T09:49:25.591Z,408.00
2023-02-01T09:50:26.044Z,464.00
2023-02-01T09:51:25.566Z,456.00
2023-02-01T09:52:25.576Z,504.00
2023-02-01T09:53:25.534Z,504.00
2023-02-01T09:54:25.538Z,552.00
2023-02-01T09:55:25.513Z,520.00
2023-02-01T09:56:26.036Z,576.00
2023-02-01T09:57:25.489Z,540.00
2023-02-01T09:58:25.508Z,520.00
2023-02-01T09:59:25.465Z,492.00
2023-02-01T10:00:25.986Z,544.00
2023-02-01T10:01:25.516Z,508.00
2023-02-01T10:02:25.438Z,476.00
2023-02-01T10:03:25.422Z,560.00
2023-02-01T10:04:25.433Z,588.00
2023-02-01T10:05:25.386Z,576.00
2023-02-01T10:06:25.375Z,672.00
2023-02-01T10:07:25.365Z,720.00
2023-02-01T10:08:25.368Z,868.00
2023-02-01T10:09:25.356Z,920.00
2023-02-01T10:10:25.845Z,964.00
2023-02-01T10:11:25.339Z,940.00
2023-02-01T10:12:25.386Z,964.00
2023-02-01T10:13:25.294Z,972.00
2023-02-01T10:14:25.353Z,1028.00
2023-02-01T10:15:25.840Z,920.00
2023-02-01T10:16:25.418Z,776.00
2023-02-01T10:17:25.267Z,768.00
2023-02-01T10:18:25.276Z,712.00
2023-02-01T10:19:25.227Z,712.00
2023-02-01T10:20:25.836Z,664.00
2023-02-01T10:21:25.207Z,664.00
2023-02-01T10:22:41.025Z,668.00
2023-02-01T10:23:33.943Z,712.00
2023-02-01T10:24:26.337Z,660.00
2023-02-01T10:25:25.168Z,712.00
2023-02-01T10:26:25.171Z,804.00
2023-02-01T10:27:25.160Z,940.00
2023-02-01T10:28:25.146Z,1004.00
2023-02-01T10:29:25.114Z,996.00
2023-02-01T10:30:25.592Z,996.00
2023-02-01T10:31:25.163Z,1028.00
2023-02-01T10:32:25.877Z,832.00
2023-02-01T10:33:25.083Z,788.00
2023-02-01T10:34:25.081Z,748.00
2023-02-01T10:35:25.062Z,732.00
2023-02-01T10:36:25.181Z,568.00
2023-02-01T10:37:25.034Z,492.00
2023-02-01T10:38:25.018Z,504.00
2023-02-01T10:39:25.030Z,524.00
2023-02-01T10:40:25.437Z,532.00
2023-02-01T10:41:24.975Z,528.00
2023-02-01T10:42:24.974Z,616.00
2023-02-01T10:43:24.994Z,624.00
2023-02-01T10:44:24.991Z,700.00
2023-02-01T10:45:24.953Z,604.00
2023-02-01T10:46:24.992Z,676.00
2023-02-01T10:47:24.930Z,732.00
2023-02-01T10:48:24.925Z,640.00
2023-02-01T10:49:24.917Z,724.00
2023-02-01T10:50:25.224Z,848.00
2023-02-01T10:51:24.873Z,716.00
2023-02-01T10:52:25.045Z,748.00
2023-02-01T10:53:24.859Z,732.00
2023-02-01T10:54:24.857Z,616.00
2023-02-01T10:55:24.822Z,644.00
2023-02-01T10:56:24.831Z,452.00
2023-02-01T10:57:24.800Z,584.00
2023-02-01T10:58:24.806Z,616.00
2023-02-01T10:59:24.775Z,580.00
2023-02-01T11:00:24.975Z,600.00
2023-02-01T11:01:24.795Z,568.00
2023-02-01T11:02:24.754Z,544.00
2023-02-01T11:03:24.755Z,512.00
2023-02-01T11:04:24.736Z,696.00
2023-02-01T11:05:24.736Z,744.00
2023-02-01T11:06:24.710Z,684.00
2023-02-01T11:07:24.677Z,644.00
2023-02-01T11:08:24.699Z,608.00
2023-02-01T11:09:24.696Z,544.00
2023-02-01T11:10:25.101Z,556.00
2023-02-01T11:11:24.672Z,492.00
2023-02-01T11:12:24.796Z,572.00
2023-02-01T11:13:24.719Z,608.00
2023-02-01T11:14:24.694Z,656.00
2023-02-01T11:15:24.921Z,636.00
2023-02-01T11:16:24.679Z,640.00
2023-02-01T11:17:24.627Z,688.00
2023-02-01T11:18:24.601Z,720.00
2023-02-01T11:19:24.585Z,728.00
2023-02-01T11:20:24.608Z,692.00
2023-02-01T11:21:24.579Z,696.00
2023-02-01T11:22:24.547Z,660.00
2023-02-01T11:23:24.529Z,636.00
2023-02-01T11:24:24.705Z,644.00
2023-02-01T11:25:24.982Z,580.00
2023-02-01T11:26:24.572Z,552.00
2023-02-01T11:27:27.619Z,476.00
2023-02-01T11:28:24.458Z,460.00
2023-02-01T11:29:24.451Z,408.00
2023-02-01T11:30:24.496Z,420.00
2023-02-01T11:31:24.479Z,436.00
2023-02-01T11:32:24.418Z,432.00
2023-02-01T11:33:24.383Z,416.00
2023-02-01T11:34:24.395Z,380.00
2023-02-01T11:35:24.694Z,392.00
2023-02-01T11:36:24.383Z,428.00
2023-02-01T11:37:24.366Z,468.00
2023-02-01T11:38:24.360Z,456.00
2023-02-01T11:39:24.327Z,500.00
2023-02-01T11:40:24.584Z,508.00
2023-02-01T11:41:24.335Z,488.00
2023-02-01T11:42:24.327Z,464.00
2023-02-01T11:43:31.350Z,452.00
2023-02-01T11:44:24.279Z,404.00
2023-02-01T11:45:24.265Z,396.00
2023-02-01T11:46:24.289Z,364.00
2023-02-01T11:47:24.399Z,332.00
2023-02-01T11:48:27.562Z,348.00
2023-02-01T11:49:24.203Z,352.00
2023-02-01T11:50:24.492Z,336.00
2023-02-01T11:51:24.342Z,356.00
2023-02-01T11:52:24.224Z,380.00
2023-02-01T11:53:24.167Z,364.00
2023-02-01T11:54:24.170Z,360.00
2023-02-01T11:55:24.147Z,376.00
2023-02-01T11:56:24.136Z,444.00
2023-02-01T11:57:24.443Z,368.00
2023-02-01T11:58:24.159Z,308.00
2023-02-01T11:59:24.110Z,296.00
2023-02-01T12:00:24.482Z,288.00
2023-02-01T12:01:24.091Z,244.00
2023-02-01T12:02:24.086Z,232.00
2023-02-01T12:03:24.138Z,228.00
2023-02-01T12:04:24.098Z,256.00
2023-02-01T12:05:24.033Z,232.00
2023-02-01T12:06:24.023Z,204.00
2023-02-01T12:07:24.019Z,204.00
2023-02-01T12:08:24.007Z,268.00
2023-02-01T12:09:23.984Z,324.00
2023-02-01T12:10:24.358Z,340.00
2023-02-01T12:11:23.983Z,324.00
2023-02-01T12:12:23.959Z,308.00
2023-02-01T12:13:23.947Z,316.00
2023-02-01T12:14:23.950Z,364.00
2023-02-01T12:15:23.940Z,356.00
2023-02-01T12:16:24.036Z,352.00
2023-02-01T12:17:23.907Z,328.00
2023-02-01T12:18:23.891Z,324.00
2023-02-01T12:19:23.867Z,332.00
2023-02-01T12:20:24.093Z,380.00
2023-02-01T12:21:23.875Z,400.00
2023-02-01T12:22:23.883Z,448.00
2023-02-01T12:23:23.825Z,500.00
2023-02-01T12:24:23.824Z,440.00
2023-02-01T12:25:23.826Z,336.00
2023-02-01T12:26:23.831Z,312.00
2023-02-01T12:27:23.803Z,256.00
2023-02-01T12:28:23.777Z,204.00
2023-02-01T12:29:23.764Z,232.00
2023-02-01T12:30:24.161Z,224.00
2023-02-01T12:31:23.780Z,256.00
2023-02-01T12:32:23.744Z,272.00
2023-02-01T12:33:23.738Z,276.00
2023-02-01T12:34:23.704Z,380.00
2023-02-01T12:35:23.703Z,500.00
2023-02-01T12:36:23.685Z,400.00
2023-02-01T12:37:23.693Z,352.00
2023-02-01T12:38:23.665Z,288.00
2023-02-01T12:39:23.652Z,300.00
2023-02-01T12:40:23.988Z,312.00
2023-02-01T12:41:23.720Z,312.00
2023-02-01T12:42:23.603Z,244.00
2023-02-01T12:43:23.647Z,264.00
2023-02-01T12:44:23.594Z,208.00
2023-02-01T12:45:23.583Z,196.00
2023-02-01T12:46:23.961Z,156.00
2023-02-01T12:47:23.594Z,224.00
2023-02-01T12:48:23.559Z,244.00
2023-02-01T12:49:23.552Z,316.00
2023-02-01T12:50:23.838Z,388.00
2023-02-01T12:51:23.520Z,384.00
2023-02-01T12:52:23.513Z,364.00
2023-02-01T12:53:23.900Z,372.00
2023-02-01T12:54:23.483Z,408.00
2023-02-01T12:55:23.540Z,416.00
2023-02-01T12:56:23.463Z,568.00